Kennebunkport, ME

3:39 AM EST on November 27, 2014 (GMT -0500)
Pease International Tradeport | Change Station
CLOSE
Current Station
Airport
Location: Portsmouth,
Elevation: 102 ft
Nearby Weather Stations
Active Advisory: Winter Storm Warning Active Notice: Public Information Statement

Elev 102 ft 43.08 °N, 70.82 °W | Updated 13 minutes ago

Snow
Snow
32 °F
Feels Like 21 °F
N
17
Wind Variable Wind from NW
Gusts 24 mph

Today
High -- | Low -- °F
--% Chance of Precip.
Yesterday
High -- | Low -- °F
Precip. -- in
6:50 AM 4:08 PM
Waxing Crescent, 27% visible
Pressure 29.73 in
Visibility 2.0 miles
Clouds Few 200 ft
Mostly Cloudy 600 ft
Overcast 1000 ft
Windchill 21 °F
Dew Point 30 °F
Humidity 93%
Rainfall 0.05 in
Snow Depth Not available.
UV 0 out of 12
Pollen .10 out of 12
Air Quality Not available.
Flu Activity Not available.
SPECI KPSM 270826Z 32015G21KT 2SM -SN BR FEW002 BKN006 OVC010 00/M01 A2973

More Conditions Fewer Conditions

Pressure 29.73 in
Visibility 2.0 miles
Clouds Few 200 ft
Mostly Cloudy 600 ft
Overcast 1000 ft
Windchill 21 °F
Dew Point 30 °F
Humidity 93%
Rainfall 0.05 in
Snow Depth Not available.
UV 0 out of 12
Pollen .10 out of 12
Air Quality Not available.
Flu Activity Not available.
SPECI KPSM 270826Z 32015G21KT 2SM -SN BR FEW002 BKN006 OVC010 00/M01 A2973

More Conditions Fewer Conditions

10-Day Weather Forecast

Almanac

Astronomy

Nov. 27, 2014 Rise Set
Actual Time
Civil Twilight
Nautical Twilight
Astronomical Twilight
Moon
Length of Visible Light
Length of Day
Tomorrow will be .
, % of the Moon is Illuminated

Today's Extremes

State Highs State Lows

Community

WunderPhotos

Upload Photos

1,773,965 photos uploaded!

WunderBlogs® & News

Nearby

Air Quality

  Air Quality AQ Index Pollutant
Not available.

Snow Depth

Station Depth Elevation

Earthquake Activity

City Distance Mag. Time & Date
Minimum magnitude displayed is 2.5.

Coastal Water Temperatures

Place Temperature

Nearby Weather Stations